createdAt,value
2022-09-05T00:02:00.284Z,30.90793
2022-09-05T00:07:02.238Z,31.03096
2022-09-05T00:12:03.867Z,32.3913
2022-09-05T00:17:05.493Z,32.03585
2022-09-05T00:24:28.685Z,33.40019
2022-09-05T00:31:08.222Z,32.30913
2022-09-05T00:36:54.944Z,32.38196
2022-09-05T00:41:57.137Z,32.95728
2022-09-05T00:46:59.503Z,32.72331
2022-09-05T00:52:01.742Z,33.18678
2022-09-05T00:57:03.716Z,33.63553
2022-09-05T01:02:06.273Z,34.22971
2022-09-05T01:07:08.668Z,34.29144
2022-09-05T01:12:10.735Z,34.8232
2022-09-05T01:17:12.372Z,35.65554
2022-09-05T01:22:14.451Z,35.54635
2022-09-05T01:27:16.113Z,35.71278
2022-09-05T01:32:17.579Z,36.41943
2022-09-05T01:37:32.843Z,36.5133
2022-09-05T01:42:36.404Z,38.94467
2022-09-05T01:47:38.283Z,33.55571
2022-09-05T01:52:57.421Z,33.70673
2022-09-05T01:58:03.141Z,33.08943
2022-09-05T02:03:04.625Z,32.07217
2022-09-05T02:08:06.624Z,31.3231
2022-09-05T02:13:08.661Z,32.73656
2022-09-05T02:18:10.263Z,30.53223
2022-09-05T02:23:25.985Z,30.29028
2022-09-05T02:28:44.666Z,30.55136
2022-09-05T02:33:46.430Z,30.56819
2022-09-05T02:41:55.597Z,29.87807
2022-09-05T02:54:14.296Z,30.29958
2022-09-05T03:02:34.600Z,31.62467
2022-09-05T03:07:36.374Z,32.64342
2022-09-05T03:12:38.374Z,33.31499
2022-09-05T03:17:40.175Z,34.39765
2022-09-05T03:22:42.355Z,33.78451
2022-09-05T03:27:44.215Z,34.30361
2022-09-05T03:32:46.174Z,35.17235
2022-09-05T03:37:47.982Z,35.99299
2022-09-05T03:42:49.553Z,37.0619
2022-09-05T03:47:52.137Z,37.47208
2022-09-05T03:57:18.178Z,37.09322
2022-09-05T04:08:09.442Z,38.00835
2022-09-05T04:13:31.789Z,39.96566
2022-09-05T04:18:34.153Z,39.75395
2022-09-05T04:23:36.303Z,40.9721
2022-09-05T04:28:38.057Z,40.06147
2022-09-05T04:33:43.365Z,38.55854
2022-09-05T04:38:45.151Z,37.72011
2022-09-05T04:43:46.938Z,37.5649
2022-09-05T04:48:48.662Z,36.59042
2022-09-05T04:53:50.720Z,34.9122
2022-09-05T05:00:08.953Z,34.40237
2022-09-05T05:17:38.451Z,34.63037
2022-09-05T05:23:19.177Z,35.91557
2022-09-05T05:28:25.007Z,34.95238
2022-09-05T05:33:27.115Z,33.59511
2022-09-05T05:38:29.203Z,33.06573
2022-09-05T05:43:31.040Z,33.32055
2022-09-05T05:48:33.783Z,33.27815
2022-09-05T05:53:43.954Z,32.77996
2022-09-05T05:58:47.160Z,32.13236
2022-09-05T06:03:49.061Z,31.20103
2022-09-05T06:12:24.725Z,30.55686
2022-09-05T06:21:51.112Z,28.9299
2022-09-05T06:27:10.143Z,28.88481
2022-09-05T06:32:12.492Z,26.5876
2022-09-05T06:37:16.587Z,26.71051
2022-09-05T06:42:42.209Z,24.75919
2022-09-05T06:47:45.261Z,24.11248
2022-09-05T06:52:47.326Z,24.75586
2022-09-05T06:57:49.132Z,23.69238
2022-09-05T07:02:59.003Z,22.15535
2022-09-05T07:08:13.579Z,22.64882
2022-09-05T07:13:44.530Z,23.20082
2022-09-05T07:18:46.588Z,23.60974
2022-09-05T07:24:06.221Z,23.72768
2022-09-05T07:29:12.471Z,23.52588
2022-09-05T07:34:21.074Z,22.34285
2022-09-05T07:39:28.733Z,22.92838
2022-09-05T07:44:30.801Z,20.84792
2022-09-05T07:49:32.442Z,20.628
2022-09-05T07:57:04.126Z,20.08569
2022-09-05T08:02:13.784Z,19.50361
2022-09-05T08:07:48.192Z,18.53571
2022-09-05T08:13:24.400Z,18.81687
2022-09-05T08:18:37.252Z,17.85414
2022-09-05T08:23:39.039Z,17.65593
2022-09-05T08:28:40.799Z,18.86553
2022-09-05T08:33:42.783Z,16.00859
2022-09-05T08:38:45.590Z,16.71694
2022-09-05T08:46:44.008Z,15.1831
2022-09-05T08:51:54.277Z,14.75282
2022-09-05T08:56:56.753Z,14.37757
2022-09-05T09:02:14.348Z,14.78647
2022-09-05T09:07:52.168Z,14.15067
2022-09-05T09:12:54.044Z,14.58962
2022-09-05T09:17:55.680Z,14.25049
2022-09-05T09:22:57.181Z,13.45351
2022-09-05T09:28:49.856Z,13.93634
2022-09-05T09:33:53.324Z,14.78393
2022-09-05T09:38:54.953Z,14.18859
2022-09-05T09:43:56.824Z,13.66929
2022-09-05T09:48:58.289Z,13.30311
2022-09-05T09:53:59.779Z,13.12685
2022-09-05T09:59:01.220Z,13.21363
2022-09-05T10:10:14.943Z,13.78128
2022-09-05T10:15:58.516Z,13.66123
2022-09-05T10:21:15.367Z,13.43119
2022-09-05T10:26:19.806Z,13.0345
2022-09-05T10:33:09.118Z,13.00859
2022-09-05T10:40:13.735Z,12.52096
2022-09-05T10:45:15.856Z,12.87139
2022-09-05T10:50:17.974Z,12.68096
2022-09-05T10:55:19.873Z,12.49383
2022-09-05T11:02:20.635Z,12.38055
2022-09-05T11:07:29.382Z,13.26758
2022-09-05T11:12:31.489Z,12.8331
2022-09-05T11:17:33.199Z,12.49237
2022-09-05T11:22:35.770Z,12.70353
2022-09-05T11:27:37.308Z,11.8896
2022-09-05T11:39:45.536Z,11.68841
2022-09-05T11:45:13.805Z,12.26398
2022-09-05T11:50:15.542Z,13.07765
2022-09-05T11:55:20.645Z,12.04588
2022-09-05T12:00:33.818Z,11.57819
2022-09-05T12:05:48.817Z,12.11395
2022-09-05T12:10:52.735Z,12.52827
2022-09-05T12:16:07.672Z,12.54998
2022-09-05T12:21:14.415Z,12.43929
2022-09-05T12:27:40.546Z,12.87265
2022-09-05T12:36:04.010Z,12.54227
2022-09-05T12:41:43.038Z,12.93219
2022-09-05T12:46:50.565Z,13.26505
2022-09-05T12:51:52.398Z,13.2519
2022-09-05T13:02:41.936Z,12.88515
2022-09-05T13:08:17.805Z,13.06292
2022-09-05T13:14:52.691Z,13.11844
2022-09-05T13:20:07.460Z,13.11821
2022-09-05T13:25:09.078Z,13.97356
2022-09-05T13:31:24.876Z,12.89143
2022-09-05T13:41:27.424Z,12.63232
2022-09-05T13:46:29.721Z,12.28063
2022-09-05T13:51:31.462Z,12.81223
2022-09-05T13:56:33.054Z,13.4066
2022-09-05T14:01:35.414Z,13.01557
2022-09-05T14:06:47.762Z,13.19292
2022-09-05T14:11:50.238Z,13.09268
2022-09-05T14:16:54.414Z,13.40228
2022-09-05T14:21:56.149Z,13.08474
2022-09-05T14:26:57.942Z,13.23559
2022-09-05T14:37:37.453Z,13.34511
2022-09-05T14:42:59.106Z,13.76238
2022-09-05T14:48:02.457Z,14.53539
2022-09-05T15:02:53.743Z,14.53315
2022-09-05T15:08:01.928Z,14.49945
2022-09-05T15:13:04.200Z,14.64555
2022-09-05T15:18:06.241Z,13.48832
2022-09-05T15:23:16.914Z,13.61319
2022-09-05T15:28:19.088Z,13.84824
2022-09-05T15:33:25.297Z,13.81458
2022-09-05T15:38:28.054Z,13.77276
2022-09-05T15:43:29.780Z,14.57072
2022-09-05T15:48:34.686Z,14.47894
2022-09-05T15:53:36.856Z,14.36748
2022-09-05T15:58:53.649Z,14.36461
2022-09-05T16:10:26.723Z,14.50751
2022-09-05T16:19:44.616Z,14.85917
2022-09-05T16:28:37.960Z,16.28779
2022-09-05T16:33:39.839Z,15.32699
2022-09-05T16:38:49.547Z,14.82696
2022-09-05T16:43:52.456Z,14.87102
2022-09-05T16:48:55.089Z,15.26134
2022-09-05T16:53:59.071Z,15.766
2022-09-05T16:59:01.308Z,15.31316
2022-09-05T17:04:02.868Z,15.81449
2022-09-05T17:09:13.112Z,15.88674
2022-09-05T17:14:15.301Z,15.32445
2022-09-05T17:19:16.998Z,15.7453
2022-09-05T17:29:17.406Z,15.61413
2022-09-05T17:34:39.842Z,15.80627
2022-09-05T17:39:45.036Z,16.34638
2022-09-05T17:44:47.349Z,16.55556
2022-09-05T17:55:05.199Z,16.73359
2022-09-05T18:00:11.918Z,17.06215
2022-09-05T18:05:14.347Z,17.15796
2022-09-05T18:35:37.093Z,17.72697
2022-09-05T18:40:39.845Z,18.12209
2022-09-05T18:45:52.150Z,18.1799
2022-09-05T18:51:13.050Z,18.33366
2022-09-05T18:56:20.706Z,18.35353
2022-09-05T19:01:22.926Z,18.65921
2022-09-05T19:06:36.633Z,18.37017
2022-09-05T19:11:53.311Z,18.21513
2022-09-05T19:16:56.007Z,18.62212
2022-09-05T19:22:48.589Z,18.33388
2022-09-05T19:33:31.352Z,18.5019
2022-09-05T19:47:28.857Z,18.63222
2022-09-05T19:52:48.237Z,19.27597
2022-09-05T19:58:05.282Z,19.4293
2022-09-05T20:03:21.909Z,19.29797
2022-09-05T20:08:23.710Z,19.1729
2022-09-05T20:13:25.708Z,19.43363
2022-09-05T20:18:27.942Z,19.93276
2022-09-05T20:23:30.069Z,19.73363
2022-09-05T20:28:32.032Z,19.59826
2022-09-05T20:33:33.814Z,19.93805
2022-09-05T20:43:23.462Z,20.02637
2022-09-05T20:54:04.755Z,20.35804
2022-09-05T20:59:13.080Z,20.21538
2022-09-05T21:04:14.548Z,20.89011
2022-09-05T21:09:22.478Z,23.42394
2022-09-05T21:14:26.283Z,24.31868
2022-09-05T21:19:28.281Z,24.89946
2022-09-05T21:24:29.971Z,25.47195
2022-09-05T21:29:33.279Z,25.95845
2022-09-05T21:34:35.438Z,25.75394
2022-09-05T21:39:37.237Z,26.43446
2022-09-05T21:47:49.983Z,28.31168
2022-09-05T21:53:04.162Z,27.44408
2022-09-05T21:59:21.903Z,28.33027
2022-09-05T22:04:33.112Z,28.41915
2022-09-05T22:09:42.765Z,27.10968
2022-09-05T22:14:44.189Z,27.38378
2022-09-05T22:19:45.835Z,28.2606
2022-09-05T22:24:47.532Z,28.0821
2022-09-05T22:29:50.831Z,27.70673
2022-09-05T22:34:52.887Z,28.17099
2022-09-05T22:39:54.673Z,26.98731
2022-09-05T22:44:56.412Z,27.89315
2022-09-05T22:49:57.896Z,28.10404
2022-09-05T22:54:59.811Z,27.95838
2022-09-05T23:00:01.342Z,27.72123
2022-09-05T23:05:02.864Z,29.28382
2022-09-05T23:10:04.478Z,30.063
2022-09-05T23:15:06.398Z,30.24847
2022-09-05T23:20:08.142Z,30.1827
2022-09-05T23:25:10.093Z,30.63537
2022-09-05T23:30:11.515Z,31.12031
2022-09-05T23:35:13.538Z,30.93396
2022-09-05T23:40:15.010Z,30.59605
2022-09-05T23:45:16.789Z,31.89543
2022-09-05T23:50:18.768Z,32.79132
2022-09-05T23:55:20.870Z,32.31847
